Time;durP1;ratioP1;P1;durP2;ratioP2;P2;SDS_P1;SDS_P2;PMS_P1;PMS_P2;Temp;Humidity;BMP_temperature;BMP_pressure;BME280_temperature;BME280_humidity;BME280_pressure;Samples;Min_cycle;Max_cycle;Signal;HPM_P1;HPM_P2
2023/09/11 00:02:13;;;;;;;;;;;;;;;;;;5095256;28;19912;-57
2023/09/11 00:04:39;;;;;;;;;;;;;;;;;;5095374;28;19957;-55
2023/09/11 00:07:04;;;;;;;;;;;;;;;;;;5077218;28;19947;-55
2023/09/11 00:09:30;;;;;;;;;;;;;;;;;;5074959;28;19940;-53
2023/09/11 00:11:55;;;;;;;;;;;;;;;;;;5075053;28;19917;-54
2023/09/11 00:14:21;;;;;;;;;;;;;;;;;;5057737;28;20023;-56
2023/09/11 00:16:46;;;;;;;;;;;;;;;;;;5089773;28;19928;-53
2023/09/11 00:19:12;;;;;;;;;;;;;;;;;;5095085;28;19947;-56
2023/09/11 00:21:37;;;;;;;;;;;;;;;;;;5095266;28;19912;-55
2023/09/11 00:24:03;;;;;;;;;;;;;;;;;;5094993;28;19993;-54
2023/09/11 00:26:29;;;;;;;;;;;;;;;;;;5083422;28;19912;-58
2023/09/11 00:28:55;;;;;;;;;;;;;;;;;;5074679;28;19977;-54
2023/09/11 00:31:20;;;;;;;;;;;;;;;;;;5074773;28;19916;-55
2023/09/11 00:33:46;;;;;;;;;;;;;;;;;;5074958;28;19916;-53
2023/09/11 00:36:11;;;;;;;;;;;;;;;;;;5065445;28;19920;-53
2023/09/11 00:38:36;;;;;;;;;;;;;;;;;;5095142;28;19923;-56
2023/09/11 00:41:02;;;;;;;;;;;;;;;;;;5094541;28;19999;-54
2023/09/11 00:43:27;;;;;;;;;;;;;;;;;;5095006;28;19981;-49
2023/09/11 00:45:55;;;;;;;;;;;;;;;;;;5072598;28;19912;-55
2023/09/11 00:48:20;;;;;;;;;;;;;;;;;;5074743;28;19932;-55
2023/09/11 00:50:46;;;;;;;;;;;;;;;;;;5074720;28;19976;-54
2023/09/11 00:53:12;;;;;;;;;;;;;;;;;;5057191;28;19913;-55
2023/09/11 00:55:37;;;;;;;;;;;;;;;;;;5057357;28;20000;-51
2023/09/11 00:58:03;;;;;;;;;;;;;;;;;;5074556;28;19944;-53
2023/09/11 01:00:29;;;;;;;;;;;;;;;;;;5087227;28;19916;-52
2023/09/11 01:02:57;;;;;;;;;;;;;;;;;;5078117;28;19923;-52
2023/09/11 01:05:23;;;;;;;;;;;;;;;;;;5080784;28;19912;-52
2023/09/11 01:07:48;;;;;;;;;;;;;;;;;;5079408;28;19940;-52
2023/09/11 01:10:14;;;;;;;;;;;;;;;;;;5060753;28;19924;-53
2023/09/11 01:12:39;;;;;;;;;;;;;;;;;;5078323;28;19913;-56
2023/09/11 01:15:05;;;;;;;;;;;;;;;;;;5060625;28;19984;-51
2023/09/11 01:17:31;;;;;;;;;;;;;;;;;;5093497;28;19912;-55
2023/09/11 01:19:56;;;;;;;;;;;;;;;;;;5091783;28;19996;-50
2023/09/11 01:22:21;;;;;;;;;;;;;;;;;;5060546;28;19936;-55
2023/09/11 01:24:47;;;;;;;;;;;;;;;;;;5077978;28;19980;-54
2023/09/11 01:27:13;;;;;;;;;;;;;;;;;;5090048;28;19920;-55
2023/09/11 01:29:38;;;;;;;;;;;;;;;;;;5080410;28;19916;-54
2023/09/11 01:32:05;;;;;;;;;;;;;;;;;;5080394;28;19947;-55
2023/09/11 01:34:30;;;;;;;;;;;;;;;;;;5080431;28;19934;-54
2023/09/11 01:36:56;;;;;;;;;;;;;;;;;;5088839;28;19917;-53
2023/09/11 01:39:21;;;;;;;;;;;;;;;;;;5060135;28;19919;-50
2023/09/11 01:41:47;;;;;;;;;;;;;;;;;;5060223;28;19959;-50
2023/09/11 01:44:12;;;;;;;;;;;;;;;;;;5059953;28;19920;-54
2023/09/11 01:46:38;;;;;;;;;;;;;;;;;;5065973;28;19952;-53
2023/09/11 01:49:04;;;;;;;;;;;;;;;;;;5079910;28;19912;-57
2023/09/11 01:51:30;;;;;;;;;;;;;;;;;;5079764;28;19916;-53
2023/09/11 01:53:55;;;;;;;;;;;;;;;;;;5097471;28;19952;-56
2023/09/11 01:56:21;;;;;;;;;;;;;;;;;;5077246;28;19916;-50
2023/09/11 01:58:46;;;;;;;;;;;;;;;;;;5077266;28;19972;-57
2023/09/11 02:01:12;;;;;;;;;;;;;;;;;;5073019;28;19913;-54
2023/09/11 02:03:40;;;;;;;;;;;;;;;;;;5097482;28;19919;-51
2023/09/11 02:06:06;;;;;;;;;;;;;;;;;;5097253;28;19948;-57
2023/09/11 02:08:31;;;;;;;;;;;;;;;;;;5097230;28;19919;-55
2023/09/11 02:10:57;;;;;;;;;;;;;;;;;;5079306;28;19916;-55
2023/09/11 02:13:22;;;;;;;;;;;;;;;;;;5097073;28;19999;-53
2023/09/11 02:15:48;;;;;;;;;;;;;;;;;;5078554;28;19919;-54
2023/09/11 02:18:13;;;;;;;;;;;;;;;;;;5080517;28;19977;-55
2023/09/11 02:20:39;;;;;;;;;;;;;;;;;;5083897;28;19912;-54
2023/09/11 02:23:04;;;;;;;;;;;;;;;;;;5096911;28;19916;-55
2023/09/11 02:25:30;;;;;;;;;;;;;;;;;;5079406;28;19927;-52
2023/09/11 02:27:55;;;;;;;;;;;;;;;;;;5083837;28;19924;-58
2023/09/11 02:30:21;;;;;;;;;;;;;;;;;;5076638;28;19980;-57
2023/09/11 02:32:46;;;;;;;;;;;;;;;;;;5059200;28;19913;-53
2023/09/11 02:35:12;;;;;;;;;;;;;;;;;;5059120;28;19913;-56
2023/09/11 02:37:37;;;;;;;;;;;;;;;;;;5068721;28;19912;-56
2023/09/11 02:40:03;;;;;;;;;;;;;;;;;;5078831;28;19912;-56
2023/09/11 02:42:28;;;;;;;;;;;;;;;;;;5078956;28;19963;-55
2023/09/11 02:44:54;;;;;;;;;;;;;;;;;;5078914;28;19913;-56
2023/09/11 02:47:19;;;;;;;;;;;;;;;;;;5090173;28;19912;-56
2023/09/11 02:49:45;;;;;;;;;;;;;;;;;;5058920;28;19917;-56
2023/09/11 02:52:10;;;;;;;;;;;;;;;;;;5076233;28;19920;-54
2023/09/11 02:54:36;;;;;;;;;;;;;;;;;;5059025;28;19940;-52
2023/09/11 02:57:01;;;;;;;;;;;;;;;;;;5058556;28;19920;-52
2023/09/11 02:59:27;;;;;;;;;;;;;;;;;;5058748;28;19917;-54
2023/09/11 03:01:52;;;;;;;;;;;;;;;;;;5089745;28;19913;-54
2023/09/11 03:04:17;;;;;;;;;;;;;;;;;;5078459;28;19912;-54
2023/09/11 03:06:43;;;;;;;;;;;;;;;;;;5066261;28;19948;-56
2023/09/11 03:09:08;;;;;;;;;;;;;;;;;;5111012;28;19912;-56
2023/09/11 03:11:34;;;;;;;;;;;;;;;;;;5067939;28;19917;-57
2023/09/11 03:14:00;;;;;;;;;;;;;;;;;;5058465;28;19913;-54
2023/09/11 03:16:26;;;;;;;;;;;;;;;;;;5075771;28;19960;-55
2023/09/11 03:18:54;;;;;;;;;;;;;;;;;;5075059;28;19927;-51
2023/09/11 03:21:21;;;;;;;;;;;;;;;;;;5078098;28;19920;-51
2023/09/11 03:23:47;;;;;;;;;;;;;;;;;;5078380;28;19913;-55
2023/09/11 03:26:13;;;;;;;;;;;;;;;;;;5077941;28;19948;-54
2023/09/11 03:28:40;;;;;;;;;;;;;;;;;;5078029;28;19912;-53
2023/09/11 03:31:05;;;;;;;;;;;;;;;;;;5077869;28;19951;-55
2023/09/11 03:33:31;;;;;;;;;;;;;;;;;;5078197;28;19912;-53
2023/09/11 03:35:56;;;;;;;;;;;;;;;;;;5078025;28;19970;-51
2023/09/11 03:38:22;;;;;;;;;;;;;;;;;;5067391;28;19936;-53
2023/09/11 03:40:47;;;;;;;;;;;;;;;;;;5058028;28;19913;-50
2023/09/11 03:43:13;;;;;;;;;;;;;;;;;;5075390;28;19968;-52
2023/09/11 03:45:39;;;;;;;;;;;;;;;;;;5058045;28;19972;-54
2023/09/11 03:48:04;;;;;;;;;;;;;;;;;;5065032;28;19912;-54
2023/09/11 03:50:30;;;;;;;;;;;;;;;;;;5095481;28;19917;-57
2023/09/11 03:52:55;;;;;;;;;;;;;;;;;;5059536;28;19921;-55
2023/09/11 03:55:21;;;;;;;;;;;;;;;;;;5057681;28;19940;-57
2023/09/11 03:57:47;;;;;;;;;;;;;;;;;;5061707;28;19912;-56
2023/09/11 04:00:12;;;;;;;;;;;;;;;;;;5077722;28;19923;-52
2023/09/11 04:02:38;;;;;;;;;;;;;;;;;;5077715;28;19919;-55
2023/09/11 04:05:04;;;;;;;;;;;;;;;;;;5077800;28;19912;-56
2023/09/11 04:07:29;;;;;;;;;;;;;;;;;;5094712;28;19916;-55
2023/09/11 04:09:55;;;;;;;;;;;;;;;;;;5057551;28;20078;-53
2023/09/11 04:12:20;;;;;;;;;;;;;;;;;;5075234;28;19980;-56
2023/09/11 04:14:46;;;;;;;;;;;;;;;;;;5041302;28;19939;-55
2023/09/11 04:17:12;;;;;;;;;;;;;;;;;;5068011;28;19979;-54
2023/09/11 04:19:38;;;;;;;;;;;;;;;;;;5112111;28;19912;-56
2023/09/11 04:22:04;;;;;;;;;;;;;;;;;;5115097;28;19912;-55
2023/09/11 04:24:30;;;;;;;;;;;;;;;;;;5114695;28;19923;-57
2023/09/11 04:26:55;;;;;;;;;;;;;;;;;;5114647;28;19944;-55
2023/09/11 04:29:21;;;;;;;;;;;;;;;;;;5100720;28;19998;-52
2023/09/11 04:31:46;;;;;;;;;;;;;;;;;;5094280;28;19917;-55
2023/09/11 04:34:12;;;;;;;;;;;;;;;;;;5093739;28;19948;-54
2023/09/11 04:36:37;;;;;;;;;;;;;;;;;;5094248;28;19924;-53
2023/09/11 04:39:06;;;;;;;;;;;;;;;;;;5096686;28;19912;-57
2023/09/11 04:41:31;;;;;;;;;;;;;;;;;;5100240;28;19912;-51
2023/09/11 04:43:57;;;;;;;;;;;;;;;;;;5119201;28;19962;-52
2023/09/11 04:46:23;;;;;;;;;;;;;;;;;;5102648;28;19920;-54
2023/09/11 04:48:48;;;;;;;;;;;;;;;;;;5127637;27;19912;-55
2023/09/11 04:51:13;;;;;;;;;;;;;;;;;;5097476;28;19916;-53
2023/09/11 04:53:39;;;;;;;;;;;;;;;;;;5117156;28;19912;-54
2023/09/11 04:56:04;;;;;;;;;;;;;;;;;;5109000;28;19934;-56
2023/09/11 04:58:30;;;;;;;;;;;;;;;;;;5102522;28;19924;-53
2023/09/11 05:00:56;;;;;;;;;;;;;;;;;;5110014;28;19924;-53
2023/09/11 05:03:21;;;;;;;;;;;;;;;;;;5096750;28;19916;-53
2023/09/11 05:05:46;;;;;;;;;;;;;;;;;;5097645;28;19948;-55
2023/09/11 05:08:12;;;;;;;;;;;;;;;;;;5097354;28;19912;-57
2023/09/11 05:10:39;;;;;;;;;;;;;;;;;;5097539;28;19956;-58
2023/09/11 05:13:04;;;;;;;;;;;;;;;;;;5097294;28;19921;-55
2023/09/11 05:15:29;;;;;;;;;;;;;;;;;;5097413;28;19917;-55
2023/09/11 05:17:55;;;;;;;;;;;;;;;;;;5097269;28;20088;-57
2023/09/11 05:20:21;;;;;;;;;;;;;;;;;;5115642;28;19922;-56
2023/09/11 05:22:47;;;;;;;;;;;;;;;;;;5118247;28;19912;-55
2023/09/11 05:25:12;;;;;;;;;;;;;;;;;;5100356;28;19979;-57
2023/09/11 05:27:37;;;;;;;;;;;;;;;;;;5098003;28;19928;-57
2023/09/11 05:30:03;;;;;;;;;;;;;;;;;;5110516;28;19923;-54
2023/09/11 05:32:28;;;;;;;;;;;;;;;;;;5103504;28;19943;-56
2023/09/11 05:34:54;;;;;;;;;;;;;;;;;;5118241;28;19923;-57
2023/09/11 05:37:20;;;;;;;;;;;;;;;;;;5118172;28;19919;-57
2023/09/11 05:39:45;;;;;;;;;;;;;;;;;;5105919;28;19991;-57
2023/09/11 05:42:11;;;;;;;;;;;;;;;;;;5097655;28;19912;-55
2023/09/11 05:44:36;;;;;;;;;;;;;;;;;;5097741;28;19916;-53
2023/09/11 05:47:03;;;;;;;;;;;;;;;;;;5097695;28;19912;-55
2023/09/11 05:49:28;;;;;;;;;;;;;;;;;;5105460;28;19912;-50
2023/09/11 05:51:53;;;;;;;;;;;;;;;;;;5117678;28;19916;-52
2023/09/11 05:54:19;;;;;;;;;;;;;;;;;;5116987;28;19919;-53
2023/09/11 05:56:44;;;;;;;;;;;;;;;;;;5117717;28;19911;-55
2023/09/11 05:59:10;;;;;;;;;;;;;;;;;;5107023;28;19919;-55
2023/09/11 06:01:35;;;;;;;;;;;;;;;;;;5097548;28;19958;-53
2023/09/11 06:04:01;;;;;;;;;;;;;;;;;;5097222;28;19943;-55
2023/09/11 06:06:26;;;;;;;;;;;;;;;;;;5097333;28;19916;-52
2023/09/11 06:08:52;;;;;;;;;;;;;;;;;;5097734;28;19947;-55
2023/09/11 06:11:18;;;;;;;;;;;;;;;;;;5117306;28;19916;-53
2023/09/11 06:13:43;;;;;;;;;;;;;;;;;;5116742;28;19966;-56
2023/09/11 06:16:08;;;;;;;;;;;;;;;;;;5117264;28;19912;-57
2023/09/11 06:18:34;;;;;;;;;;;;;;;;;;5098689;28;19975;-55
2023/09/11 06:21:00;;;;;;;;;;;;;;;;;;5078682;28;19913;-49
2023/09/11 06:23:26;;;;;;;;;;;;;;;;;;5085430;28;19917;-51
2023/09/11 06:25:51;;;;;;;;;;;;;;;;;;5096255;28;19919;-55
2023/09/11 06:28:17;;;;;;;;;;;;;;;;;;5096250;28;19912;-53
2023/09/11 06:30:42;;;;;;;;;;;;;;;;;;5081581;28;19916;-55
2023/09/11 06:33:08;;;;;;;;;;;;;;;;;;5076150;28;19955;-54
2023/09/11 06:35:33;;;;;;;;;;;;;;;;;;5076099;28;19916;-56
2023/09/11 06:37:58;;;;;;;;;;;;;;;;;;5076017;28;19913;-56
2023/09/11 06:40:24;;;;;;;;;;;;;;;;;;5087180;28;19922;-52
2023/09/11 06:42:49;;;;;;;;;;;;;;;;;;5093931;28;19912;-52
2023/09/11 06:45:15;;;;;;;;;;;;;;;;;;5075669;28;19919;-53
2023/09/11 06:47:41;;;;;;;;;;;;;;;;;;5076383;28;19913;-52
2023/09/11 06:50:06;;;;;;;;;;;;;;;;;;5075760;28;19985;-55
2023/09/11 06:52:38;;;;;;;;;;;;;;;;;;5076126;28;19947;-51
2023/09/11 06:55:03;;;;;;;;;;;;;;;;;;5095310;28;19932;-55
2023/09/11 06:57:29;;;;;;;;;;;;;;;;;;5096008;28;19920;-56
2023/09/11 06:59:54;;;;;;;;;;;;;;;;;;5090473;28;19913;-55
2023/09/11 07:02:20;;;;;;;;;;;;;;;;;;5075542;28;19916;-54
2023/09/11 07:04:45;;;;;;;;;;;;;;;;;;5075962;28;19920;-58
2023/09/11 07:07:10;;;;;;;;;;;;;;;;;;5075904;28;19909;-55
2023/09/11 07:09:36;;;;;;;;;;;;;;;;;;5070585;28;19917;-57
2023/09/11 07:12:01;;;;;;;;;;;;;;;;;;5075498;28;19959;-57
2023/09/11 07:14:26;;;;;;;;;;;;;;;;;;5075832;28;19913;-53
2023/09/11 07:16:52;;;;;;;;;;;;;;;;;;5075108;28;19919;-56
2023/09/11 07:19:18;;;;;;;;;;;;;;;;;;5075267;28;19944;-55
2023/09/11 07:21:44;;;;;;;;;;;;;;;;;;5094231;28;19919;-56
2023/09/11 07:24:09;;;;;;;;;;;;;;;;;;5095570;28;19939;-55
2023/09/11 07:26:35;;;;;;;;;;;;;;;;;;5078247;28;19912;-55
2023/09/11 07:29:04;;;;;;;;;;;;;;;;;;5095464;28;19923;-54
2023/09/11 07:31:29;;;;;;;;;;;;;;;;;;5079448;28;19947;-53
2023/09/11 07:33:55;;;;;;;;;;;;;;;;;;5075209;28;19916;-55
2023/09/11 07:36:20;;;;;;;;;;;;;;;;;;5057939;28;20007;-55
2023/09/11 07:38:46;;;;;;;;;;;;;;;;;;5075414;28;19924;-53
2023/09/11 07:41:11;;;;;;;;;;;;;;;;;;5075185;28;19913;-55
2023/09/11 07:43:37;;;;;;;;;;;;;;;;;;5078761;28;19916;-56
2023/09/11 07:46:03;;;;;;;;;;;;;;;;;;5095287;28;19913;-55
2023/09/11 07:48:29;;;;;;;;;;;;;;;;;;5077603;28;19913;-54
2023/09/11 07:50:54;;;;;;;;;;;;;;;;;;5085464;28;19917;-55
2023/09/11 07:53:20;;;;;;;;;;;;;;;;;;5075066;28;19928;-55
2023/09/11 07:55:45;;;;;;;;;;;;;;;;;;5075079;28;19917;-56
2023/09/11 07:58:12;;;;;;;;;;;;;;;;;;5075082;28;19919;-57
2023/09/11 08:00:38;;;;;;;;;;;;;;;;;;5081153;28;19969;-56
2023/09/11 08:03:03;;;;;;;;;;;;;;;;;;5094663;28;19916;-56
2023/09/11 08:05:29;;;;;;;;;;;;;;;;;;5077543;28;19932;-55
2023/09/11 08:07:54;;;;;;;;;;;;;;;;;;5074766;28;19955;-57
2023/09/11 08:10:20;;;;;;;;;;;;;;;;;;5077006;28;19925;-56
2023/09/11 08:12:45;;;;;;;;;;;;;;;;;;5096075;28;19920;-52
2023/09/11 08:15:11;;;;;;;;;;;;;;;;;;5099234;28;19912;-54
2023/09/11 08:17:37;;;;;;;;;;;;;;;;;;5099675;28;19983;-52
2023/09/11 08:20:03;;;;;;;;;;;;;;;;;;5099107;28;19913;-51
2023/09/11 08:22:29;;;;;;;;;;;;;;;;;;5079203;28;19913;-52
2023/09/11 08:24:54;;;;;;;;;;;;;;;;;;5079332;28;19913;-57
2023/09/11 08:27:20;;;;;;;;;;;;;;;;;;5079097;28;19913;-53
2023/09/11 08:29:46;;;;;;;;;;;;;;;;;;5079192;28;19917;-54
2023/09/11 08:32:12;;;;;;;;;;;;;;;;;;5095330;28;19920;-56
2023/09/11 08:34:37;;;;;;;;;;;;;;;;;;5098248;28;19967;-56
2023/09/11 08:37:03;;;;;;;;;;;;;;;;;;5098855;28;19913;-50
2023/09/11 08:39:29;;;;;;;;;;;;;;;;;;5098892;28;19913;-55
2023/09/11 08:41:54;;;;;;;;;;;;;;;;;;5085583;28;19920;-53
2023/09/11 08:44:20;;;;;;;;;;;;;;;;;;5082515;28;19916;-57
2023/09/11 08:46:46;;;;;;;;;;;;;;;;;;5098902;28;19939;-53
2023/09/11 08:49:11;;;;;;;;;;;;;;;;;;5098627;28;19912;-56
2023/09/11 08:51:36;;;;;;;;;;;;;;;;;;5088626;28;19955;-56
2023/09/11 08:54:02;;;;;;;;;;;;;;;;;;5078405;28;19912;-54
2023/09/11 08:56:27;;;;;;;;;;;;;;;;;;5078524;28;19944;-51
2023/09/11 08:58:53;;;;;;;;;;;;;;;;;;5078452;28;19913;-53
2023/09/11 09:01:18;;;;;;;;;;;;;;;;;;5085097;28;19919;-56
2023/09/11 09:03:44;;;;;;;;;;;;;;;;;;5098551;28;19912;-53
2023/09/11 09:06:09;;;;;;;;;;;;;;;;;;5098257;28;19913;-56
2023/09/11 09:08:35;;;;;;;;;;;;;;;;;;5098677;28;19924;-57
2023/09/11 09:11:00;;;;;;;;;;;;;;;;;;5094947;28;19959;-57
2023/09/11 09:13:26;;;;;;;;;;;;;;;;;;5060976;28;19983;-55
2023/09/11 09:15:51;;;;;;;;;;;;;;;;;;5078692;28;19912;-53
2023/09/11 09:18:17;;;;;;;;;;;;;;;;;;5078152;28;19916;-58
2023/09/11 09:20:42;;;;;;;;;;;;;;;;;;5078021;28;19913;-56
2023/09/11 09:23:08;;;;;;;;;;;;;;;;;;5077800;28;19924;-55
2023/09/11 09:25:34;;;;;;;;;;;;;;;;;;5077662;28;19976;-56
2023/09/11 09:27:59;;;;;;;;;;;;;;;;;;5077867;28;19917;-57
2023/09/11 09:30:25;;;;;;;;;;;;;;;;;;5060394;28;19924;-55
2023/09/11 09:32:50;;;;;;;;;;;;;;;;;;5094492;28;19919;-54
2023/09/11 09:35:16;;;;;;;;;;;;;;;;;;5097569;28;19917;-53
2023/09/11 09:37:42;;;;;;;;;;;;;;;;;;5097935;28;19913;-55
2023/09/11 09:40:07;;;;;;;;;;;;;;;;;;5097932;28;19939;-53
2023/09/11 09:42:32;;;;;;;;;;;;;;;;;;5084246;28;19984;-58
2023/09/11 09:44:58;;;;;;;;;;;;;;;;;;5060160;28;19913;-54
2023/09/11 09:47:24;;;;;;;;;;;;;;;;;;5077499;28;19923;-57
2023/09/11 09:49:50;;;;;;;;;;;;;;;;;;5077353;28;19913;-55
2023/09/11 09:52:17;;;;;;;;;;;;;;;;;;5087701;28;19916;-56
2023/09/11 09:54:43;;;;;;;;;;;;;;;;;;5095834;28;19915;-58
2023/09/11 09:57:09;;;;;;;;;;;;;;;;;;5077382;28;19944;-58
2023/09/11 09:59:34;;;;;;;;;;;;;;;;;;5077316;28;19919;-55
2023/09/11 10:02:00;;;;;;;;;;;;;;;;;;5084466;28;19971;-56
2023/09/11 10:04:26;;;;;;;;;;;;;;;;;;5096960;28;19916;-57
2023/09/11 10:06:52;;;;;;;;;;;;;;;;;;5078846;28;19952;-58
2023/09/11 10:09:17;;;;;;;;;;;;;;;;;;5076935;28;19916;-55
2023/09/11 10:11:44;;;;;;;;;;;;;;;;;;5080814;28;19916;-54
2023/09/11 10:14:09;;;;;;;;;;;;;;;;;;5096975;28;19938;-57
2023/09/11 10:16:34;;;;;;;;;;;;;;;;;;5096736;28;19912;-57
2023/09/11 10:19:00;;;;;;;;;;;;;;;;;;5096873;28;19935;-58
2023/09/11 10:21:25;;;;;;;;;;;;;;;;;;5096036;28;19990;-56
2023/09/11 10:23:51;;;;;;;;;;;;;;;;;;5059453;28;19976;-57
2023/09/11 10:26:16;;;;;;;;;;;;;;;;;;5076567;28;19916;-57
2023/09/11 10:28:42;;;;;;;;;;;;;;;;;;5076737;28;19913;-58
2023/09/11 10:31:08;;;;;;;;;;;;;;;;;;5076527;28;19943;-57
2023/09/11 10:33:34;;;;;;;;;;;;;;;;;;5094086;28;19930;-55
2023/09/11 10:35:59;;;;;;;;;;;;;;;;;;5087005;28;19921;-54
2023/09/11 10:38:25;;;;;;;;;;;;;;;;;;5076330;28;19935;-58
2023/09/11 10:40:52;;;;;;;;;;;;;;;;;;5076268;28;19963;-57
2023/09/11 10:43:17;;;;;;;;;;;;;;;;;;5090555;28;19913;-58
2023/09/11 10:45:43;;;;;;;;;;;;;;;;;;5090577;28;19920;-58
2023/09/11 10:48:08;;;;;;;;;;;;;;;;;;5075820;28;19912;-57
2023/09/11 10:50:34;;;;;;;;;;;;;;;;;;5057909;28;19952;-57
2023/09/11 10:52:59;;;;;;;;;;;;;;;;;;5086857;28;19912;-59
2023/09/11 10:55:25;;;;;;;;;;;;;;;;;;5093958;28;19980;-57
2023/09/11 10:57:50;;;;;;;;;;;;;;;;;;5076213;28;19924;-58
2023/09/11 11:00:16;;;;;;;;;;;;;;;;;;5076082;28;19916;-59
2023/09/11 11:02:41;;;;;;;;;;;;;;;;;;5083733;28;19923;-58
2023/09/11 11:05:07;;;;;;;;;;;;;;;;;;5096039;28;19913;-58
2023/09/11 11:07:32;;;;;;;;;;;;;;;;;;5077212;28;19977;-59
2023/09/11 11:09:58;;;;;;;;;;;;;;;;;;5075751;28;19913;-60
2023/09/11 11:12:23;;;;;;;;;;;;;;;;;;5076243;28;19979;-59
2023/09/11 11:14:49;;;;;;;;;;;;;;;;;;5055811;28;19913;-58
2023/09/11 11:17:14;;;;;;;;;;;;;;;;;;5071105;28;20011;-59
2023/09/11 11:19:40;;;;;;;;;;;;;;;;;;5075767;28;19959;-59
2023/09/11 11:22:07;;;;;;;;;;;;;;;;;;5076719;28;19913;-59
2023/09/11 11:24:34;;;;;;;;;;;;;;;;;;5095724;28;19917;-59
2023/09/11 11:27:03;;;;;;;;;;;;;;;;;;5094521;28;21211;-59
2023/09/11 11:29:28;;;;;;;;;;;;;;;;;;5095455;28;19912;-58
2023/09/11 11:31:54;;;;;;;;;;;;;;;;;;5095200;28;19942;-57
2023/09/11 11:34:19;;;;;;;;;;;;;;;;;;5076543;28;19912;-59
2023/09/11 11:36:45;;;;;;;;;;;;;;;;;;5084949;28;19947;-58
2023/09/11 11:39:11;;;;;;;;;;;;;;;;;;5095463;28;19913;-59
2023/09/11 11:41:37;;;;;;;;;;;;;;;;;;5095431;28;19956;-58
2023/09/11 11:44:04;;;;;;;;;;;;;;;;;;5061924;28;19916;-59
2023/09/11 11:46:29;;;;;;;;;;;;;;;;;;5075064;28;19913;-59
2023/09/11 11:48:55;;;;;;;;;;;;;;;;;;5074898;28;19912;-59
2023/09/11 11:51:20;;;;;;;;;;;;;;;;;;5075195;28;20217;-58
2023/09/11 11:53:46;;;;;;;;;;;;;;;;;;5069869;28;19912;-62
2023/09/11 11:56:11;;;;;;;;;;;;;;;;;;5094763;28;19919;-59
2023/09/11 11:58:37;;;;;;;;;;;;;;;;;;5095131;28;19924;-58
2023/09/11 12:01:02;;;;;;;;;;;;;;;;;;5095082;28;19912;-58
2023/09/11 12:03:27;;;;;;;;;;;;;;;;;;5085975;28;19917;-59
2023/09/11 12:05:53;;;;;;;;;;;;;;;;;;5075058;28;19917;-58
2023/09/11 12:08:19;;;;;;;;;;;;;;;;;;5074924;28;19927;-58
2023/09/11 12:10:45;;;;;;;;;;;;;;;;;;5075043;28;19924;-59
2023/09/11 12:13:10;;;;;;;;;;;;;;;;;;5080636;28;19959;-62
2023/09/11 12:15:36;;;;;;;;;;;;;;;;;;5095042;28;19917;-60
2023/09/11 12:18:01;;;;;;;;;;;;;;;;;;5094546;28;19981;-58
2023/09/11 12:20:27;;;;;;;;;;;;;;;;;;5095179;28;19938;-59
2023/09/11 12:22:53;;;;;;;;;;;;;;;;;;5075048;28;19912;-61
2023/09/11 12:25:18;;;;;;;;;;;;;;;;;;5074909;28;19920;-59
2023/09/11 12:27:43;;;;;;;;;;;;;;;;;;5074954;28;19936;-60
2023/09/11 12:30:09;;;;;;;;;;;;;;;;;;5074889;28;19943;-59
2023/09/11 12:32:35;;;;;;;;;;;;;;;;;;5074767;28;19920;-59
2023/09/11 12:35:00;;;;;;;;;;;;;;;;;;5074645;28;19917;-59
2023/09/11 12:37:25;;;;;;;;;;;;;;;;;;5067391;28;19952;-58
2023/09/11 12:39:51;;;;;;;;;;;;;;;;;;5094881;28;19912;-59
2023/09/11 12:42:16;;;;;;;;;;;;;;;;;;5094876;28;19938;-59
2023/09/11 12:44:42;;;;;;;;;;;;;;;;;;5078777;28;19936;-59
2023/09/11 12:47:08;;;;;;;;;;;;;;;;;;5074614;28;19917;-59
2023/09/11 12:49:33;;;;;;;;;;;;;;;;;;5074647;28;19917;-59
2023/09/11 12:51:58;;;;;;;;;;;;;;;;;;5074503;28;19917;-59
2023/09/11 12:54:23;;;;;;;;;;;;;;;;;;5087192;28;19913;-59
2023/09/11 12:56:49;;;;;;;;;;;;;;;;;;5073847;28;19913;-60
2023/09/11 12:59:14;;;;;;;;;;;;;;;;;;5076138;28;19924;-59
2023/09/11 13:01:40;;;;;;;;;;;;;;;;;;5078517;28;19976;-60
2023/09/11 13:04:06;;;;;;;;;;;;;;;;;;5087499;28;19913;-59
2023/09/11 13:06:31;;;;;;;;;;;;;;;;;;5098232;28;19916;-58
2023/09/11 13:08:56;;;;;;;;;;;;;;;;;;5098297;28;19916;-60
2023/09/11 13:11:22;;;;;;;;;;;;;;;;;;5098416;28;19939;-58
2023/09/11 13:13:48;;;;;;;;;;;;;;;;;;5092585;28;19913;-59
2023/09/11 13:16:13;;;;;;;;;;;;;;;;;;5077975;28;19913;-60
2023/09/11 13:18:38;;;;;;;;;;;;;;;;;;5094813;28;19916;-58
2023/09/11 13:21:04;;;;;;;;;;;;;;;;;;5098099;28;19927;-59
2023/09/11 13:23:30;;;;;;;;;;;;;;;;;;5098128;28;19921;-59
2023/09/11 13:25:55;;;;;;;;;;;;;;;;;;5098280;28;19919;-59
2023/09/11 13:28:21;;;;;;;;;;;;;;;;;;5098019;28;19988;-61
2023/09/11 13:30:47;;;;;;;;;;;;;;;;;;5097869;28;19920;-60
2023/09/11 13:33:12;;;;;;;;;;;;;;;;;;5097757;28;19920;-59
2023/09/11 13:35:38;;;;;;;;;;;;;;;;;;5117724;28;19950;-59
2023/09/11 13:38:03;;;;;;;;;;;;;;;;;;5107738;28;19913;-60
2023/09/11 13:40:29;;;;;;;;;;;;;;;;;;5097849;28;19913;-59
2023/09/11 13:42:54;;;;;;;;;;;;;;;;;;5097699;28;19912;-60
2023/09/11 13:45:20;;;;;;;;;;;;;;;;;;5113736;28;19923;-59
2023/09/11 13:47:45;;;;;;;;;;;;;;;;;;5117827;28;19938;-59
2023/09/11 13:50:11;;;;;;;;;;;;;;;;;;5117784;28;19912;-59
2023/09/11 13:52:36;;;;;;;;;;;;;;;;;;5118096;28;19986;-59
2023/09/11 13:55:02;;;;;;;;;;;;;;;;;;5105026;28;19916;-60
2023/09/11 13:57:27;;;;;;;;;;;;;;;;;;5097479;28;19922;-59
2023/09/11 13:59:53;;;;;;;;;;;;;;;;;;5097437;28;19927;-58
2023/09/11 14:02:18;;;;;;;;;;;;;;;;;;5097086;28;19912;-60
2023/09/11 14:04:44;;;;;;;;;;;;;;;;;;5106559;28;19947;-59
2023/09/11 14:07:09;;;;;;;;;;;;;;;;;;5117381;28;19912;-58
2023/09/11 14:09:35;;;;;;;;;;;;;;;;;;5117284;28;19918;-59
2023/09/11 14:12:00;;;;;;;;;;;;;;;;;;5116431;28;19916;-58
2023/09/11 14:14:26;;;;;;;;;;;;;;;;;;5111377;28;19938;-59
2023/09/11 14:16:52;;;;;;;;;;;;;;;;;;5092760;28;19913;-59
2023/09/11 14:19:17;;;;;;;;;;;;;;;;;;5076845;28;19921;-59
2023/09/11 14:21:43;;;;;;;;;;;;;;;;;;5076768;28;19944;-60
2023/09/11 14:24:08;;;;;;;;;;;;;;;;;;5079499;28;19913;-59
2023/09/11 14:26:34;;;;;;;;;;;;;;;;;;5097011;28;20069;-59
2023/09/11 14:28:59;;;;;;;;;;;;;;;;;;5096612;28;19944;-59
2023/09/11 14:31:27;;;;;;;;;;;;;;;;;;5096694;28;19916;-59
2023/09/11 14:33:52;;;;;;;;;;;;;;;;;;5096806;28;19919;-59
2023/09/11 14:36:18;;;;;;;;;;;;;;;;;;5096316;28;19980;-60
2023/09/11 14:38:43;;;;;;;;;;;;;;;;;;5086000;28;19913;-59
2023/09/11 14:41:09;;;;;;;;;;;;;;;;;;5076624;28;19920;-59
2023/09/11 14:43:36;;;;;;;;;;;;;;;;;;5076488;28;19913;-59
2023/09/11 14:46:01;;;;;;;;;;;;;;;;;;5092988;28;19958;-58
2023/09/11 14:48:26;;;;;;;;;;;;;;;;;;5096285;28;19916;-60
2023/09/11 14:50:52;;;;;;;;;;;;;;;;;;5096137;28;19979;-60
2023/09/11 14:53:17;;;;;;;;;;;;;;;;;;5096275;28;19987;-59
2023/09/11 14:55:43;;;;;;;;;;;;;;;;;;5082975;28;19920;-60
2023/09/11 14:58:08;;;;;;;;;;;;;;;;;;5076229;28;19923;-58
2023/09/11 15:00:34;;;;;;;;;;;;;;;;;;5076047;28;19913;-59
2023/09/11 15:02:59;;;;;;;;;;;;;;;;;;5075994;28;19917;-59
2023/09/11 15:05:25;;;;;;;;;;;;;;;;;;5085734;28;19944;-59
2023/09/11 15:07:50;;;;;;;;;;;;;;;;;;5095556;28;19935;-60
2023/09/11 15:10:17;;;;;;;;;;;;;;;;;;5075806;28;19943;-58
2023/09/11 15:12:43;;;;;;;;;;;;;;;;;;5058478;28;19912;-61
2023/09/11 15:15:08;;;;;;;;;;;;;;;;;;5064909;28;19950;-59
2023/09/11 15:17:34;;;;;;;;;;;;;;;;;;5095711;28;19916;-59
2023/09/11 15:19:59;;;;;;;;;;;;;;;;;;5078274;28;19956;-55
2023/09/11 15:22:25;;;;;;;;;;;;;;;;;;5057874;28;19920;-57
2023/09/11 15:24:50;;;;;;;;;;;;;;;;;;5078967;28;19913;-58
2023/09/11 15:27:16;;;;;;;;;;;;;;;;;;5095403;28;19913;-59
2023/09/11 15:29:41;;;;;;;;;;;;;;;;;;5095334;28;19919;-56
2023/09/11 15:32:07;;;;;;;;;;;;;;;;;;5082101;28;19988;-59
2023/09/11 15:34:32;;;;;;;;;;;;;;;;;;5071965;28;19913;-59
2023/09/11 15:36:58;;;;;;;;;;;;;;;;;;5075470;28;19916;-56
2023/09/11 15:39:23;;;;;;;;;;;;;;;;;;5084145;28;19913;-57
2023/09/11 15:41:48;;;;;;;;;;;;;;;;;;5075165;28;19912;-58
2023/09/11 15:44:15;;;;;;;;;;;;;;;;;;5075053;28;19935;-58
2023/09/11 15:46:41;;;;;;;;;;;;;;;;;;5077166;28;19913;-61
2023/09/11 15:49:06;;;;;;;;;;;;;;;;;;5074984;28;19919;-59
2023/09/11 15:51:31;;;;;;;;;;;;;;;;;;5074896;28;19919;-58
2023/09/11 15:53:57;;;;;;;;;;;;;;;;;;5074696;28;19916;-58
2023/09/11 15:56:22;;;;;;;;;;;;;;;;;;5076267;28;19913;-59
2023/09/11 15:58:47;;;;;;;;;;;;;;;;;;5074867;28;19935;-58
2023/09/11 16:01:14;;;;;;;;;;;;;;;;;;5074770;28;19973;-58
2023/09/11 16:03:40;;;;;;;;;;;;;;;;;;5074880;28;19919;-56
2023/09/11 16:06:05;;;;;;;;;;;;;;;;;;5069904;28;19914;-56
2023/09/11 16:08:30;;;;;;;;;;;;;;;;;;5056959;28;19913;-59
2023/09/11 16:10:55;;;;;;;;;;;;;;;;;;5068531;28;19927;-59
2023/09/11 16:13:22;;;;;;;;;;;;;;;;;;5055062;28;20459;-58
2023/09/11 16:15:48;;;;;;;;;;;;;;;;;;5068749;28;19976;-57
2023/09/11 16:18:14;;;;;;;;;;;;;;;;;;5095082;28;19943;-58
2023/09/11 16:20:40;;;;;;;;;;;;;;;;;;5095103;28;19913;-56
2023/09/11 16:23:05;;;;;;;;;;;;;;;;;;5067145;28;19948;-58
2023/09/11 16:25:31;;;;;;;;;;;;;;;;;;5078254;28;19919;-54
2023/09/11 16:27:56;;;;;;;;;;;;;;;;;;5087185;28;19920;-54
2023/09/11 16:30:22;;;;;;;;;;;;;;;;;;5074507;28;19920;-55
2023/09/11 16:32:47;;;;;;;;;;;;;;;;;;5071822;28;19967;-52
2023/09/11 16:35:13;;;;;;;;;;;;;;;;;;5077941;28;19912;-55